createdAt,value
2018-03-23T00:00:21.335Z,28.63
2018-03-23T00:02:48.118Z,28.77
2018-03-23T00:05:14.746Z,30.60
2018-03-23T00:07:41.756Z,30.03
2018-03-23T00:10:08.379Z,29.60
2018-03-23T00:12:34.981Z,30.70
2018-03-23T00:15:01.604Z,27.53
2018-03-23T00:17:28.250Z,26.40
2018-03-23T00:19:54.997Z,28.37
2018-03-23T00:22:21.639Z,27.67
2018-03-23T00:24:48.275Z,28.80
2018-03-23T00:27:14.883Z,28.17
2018-03-23T00:29:41.805Z,29.10
2018-03-23T00:32:08.413Z,30.50
2018-03-23T00:34:35.008Z,28.37
2018-03-23T00:37:01.651Z,29.30
2018-03-23T00:39:28.248Z,28.70
2018-03-23T00:41:54.874Z,28.80
2018-03-23T00:44:21.467Z,28.07
2018-03-23T00:46:48.097Z,28.20
2018-03-23T00:49:14.794Z,28.70
2018-03-23T00:51:41.472Z,27.80
2018-03-23T00:54:08.124Z,28.33
2018-03-23T00:56:34.743Z,28.43
2018-03-23T00:59:01.338Z,27.23
2018-03-23T01:01:27.956Z,28.53
2018-03-23T01:03:54.581Z,27.87
2018-03-23T01:06:21.189Z,27.20
2018-03-23T01:08:47.829Z,28.77
2018-03-23T01:11:14.429Z,28.33
2018-03-23T01:13:41.048Z,28.70
2018-03-23T01:16:07.672Z,28.83
2018-03-23T01:18:34.290Z,30.77
2018-03-23T01:21:00.900Z,31.40
2018-03-23T01:23:27.528Z,30.97
2018-03-23T01:25:54.158Z,30.00
2018-03-23T01:28:20.840Z,30.20
2018-03-23T01:30:47.701Z,30.13
2018-03-23T01:33:14.319Z,29.90
2018-03-23T01:35:40.941Z,31.87
2018-03-23T01:38:07.649Z,32.77
2018-03-23T01:40:34.279Z,32.13
2018-03-23T01:43:00.877Z,33.70
2018-03-23T01:45:27.537Z,35.10
2018-03-23T01:47:54.121Z,35.60
2018-03-23T01:50:20.723Z,36.30
2018-03-23T01:52:47.326Z,37.50
2018-03-23T01:55:14.021Z,37.30
2018-03-23T01:57:40.640Z,37.00
2018-03-23T02:00:07.262Z,36.00
2018-03-23T02:02:33.883Z,38.83
2018-03-23T02:05:00.503Z,36.47
2018-03-23T02:07:27.139Z,37.60
2018-03-23T02:09:53.754Z,36.50
2018-03-23T02:12:20.366Z,38.03
2018-03-23T02:14:46.960Z,39.00
2018-03-23T02:17:13.589Z,37.20
2018-03-23T02:19:40.192Z,36.87
2018-03-23T02:22:06.820Z,36.13
2018-03-23T02:24:33.442Z,36.63
2018-03-23T02:27:00.060Z,39.60
2018-03-23T02:29:26.640Z,39.50
2018-03-23T02:31:53.273Z,38.43
2018-03-23T02:34:19.880Z,39.67
2018-03-23T02:36:46.492Z,40.77
2018-03-23T02:39:13.108Z,39.50
2018-03-23T02:41:39.747Z,42.83
2018-03-23T02:44:06.350Z,39.77
2018-03-23T02:46:32.972Z,41.43
2018-03-23T02:48:59.587Z,40.40
2018-03-23T02:51:26.209Z,43.80
2018-03-23T02:53:52.812Z,42.17
2018-03-23T02:56:19.410Z,40.60
2018-03-23T02:58:46.062Z,40.50
2018-03-23T03:01:12.654Z,41.40
2018-03-23T03:03:39.265Z,40.70
2018-03-23T03:06:05.908Z,40.50
2018-03-23T03:08:32.520Z,38.63
2018-03-23T03:10:59.123Z,39.73
2018-03-23T03:13:25.768Z,41.00
2018-03-23T03:15:52.376Z,39.00
2018-03-23T03:18:19.016Z,41.70
2018-03-23T03:20:45.608Z,41.50
2018-03-23T03:23:12.241Z,43.50
2018-03-23T03:25:38.844Z,40.73
2018-03-23T03:28:05.768Z,39.10
2018-03-23T03:30:32.361Z,38.67
2018-03-23T03:32:58.991Z,40.27
2018-03-23T03:35:25.616Z,38.93
2018-03-23T03:37:52.236Z,39.60
2018-03-23T03:40:18.859Z,40.63
2018-03-23T03:42:45.492Z,40.63
2018-03-23T03:45:12.142Z,39.00
2018-03-23T03:47:38.811Z,38.90
2018-03-23T03:50:05.465Z,39.80
2018-03-23T03:52:32.063Z,39.60
2018-03-23T03:54:58.681Z,40.63
2018-03-23T03:57:25.300Z,39.57
2018-03-23T03:59:51.946Z,39.83
2018-03-23T04:02:18.536Z,40.73
2018-03-23T04:04:45.152Z,38.77
2018-03-23T04:07:11.785Z,41.20
2018-03-23T04:09:38.726Z,41.67
2018-03-23T04:12:05.352Z,38.50
2018-03-23T04:14:32.111Z,41.27
2018-03-23T04:16:58.832Z,41.30
2018-03-23T04:19:25.439Z,40.27
2018-03-23T04:21:52.051Z,42.00
2018-03-23T04:24:18.656Z,41.03
2018-03-23T04:26:45.290Z,40.13
2018-03-23T04:29:11.886Z,41.03
2018-03-23T04:31:38.483Z,40.70
2018-03-23T04:34:05.096Z,39.80
2018-03-23T04:36:31.712Z,43.10
2018-03-23T04:38:58.328Z,42.17
2018-03-23T04:41:24.939Z,43.53
2018-03-23T04:43:51.554Z,40.77
2018-03-23T04:46:18.180Z,41.27
2018-03-23T04:48:44.784Z,42.07
2018-03-23T04:51:11.473Z,42.53
2018-03-23T04:53:38.076Z,42.00
2018-03-23T04:56:04.690Z,43.50
2018-03-23T04:58:31.332Z,41.77
2018-03-23T05:00:58.008Z,43.27
2018-03-23T05:03:24.601Z,42.20
2018-03-23T05:05:51.527Z,42.23
2018-03-23T05:08:18.169Z,43.70
2018-03-23T05:10:44.766Z,42.70
2018-03-23T05:13:11.358Z,41.23
2018-03-23T05:15:37.979Z,40.43
2018-03-23T05:18:04.633Z,40.07
2018-03-23T05:20:31.335Z,38.93
2018-03-23T05:22:57.915Z,42.03
2018-03-23T05:25:24.521Z,41.03
2018-03-23T05:27:52.102Z,42.13
2018-03-23T05:30:18.737Z,42.60
2018-03-23T05:32:45.329Z,42.10
2018-03-23T05:35:12.003Z,44.70
2018-03-23T05:37:38.643Z,42.37
2018-03-23T05:40:06.467Z,42.47
2018-03-23T05:42:33.578Z,43.00
2018-03-23T05:45:00.428Z,44.50
2018-03-23T05:47:27.054Z,44.40
2018-03-23T05:49:53.692Z,43.13
2018-03-23T05:52:20.297Z,41.83
2018-03-23T05:54:46.878Z,45.10
2018-03-23T05:57:13.570Z,42.20
2018-03-23T05:59:40.231Z,41.90
2018-03-23T06:02:06.871Z,43.73
2018-03-23T06:04:33.482Z,40.77
2018-03-23T06:07:00.073Z,43.07
2018-03-23T06:09:26.702Z,41.47
2018-03-23T06:11:53.335Z,43.27
2018-03-23T06:14:20.004Z,41.10
2018-03-23T06:16:46.688Z,40.70
2018-03-23T06:19:13.315Z,44.40
2018-03-23T06:21:39.976Z,41.87
2018-03-23T06:24:06.827Z,42.37
2018-03-23T06:26:33.469Z,44.33
2018-03-23T06:29:00.092Z,41.87
2018-03-23T06:31:26.725Z,43.93
2018-03-23T06:33:54.029Z,41.63
2018-03-23T06:36:20.639Z,43.17
2018-03-23T06:38:47.324Z,40.07
2018-03-23T06:41:13.966Z,42.50
2018-03-23T06:43:40.646Z,44.10
2018-03-23T06:46:07.299Z,45.27
2018-03-23T06:48:33.927Z,40.60
2018-03-23T06:51:00.618Z,44.00
2018-03-23T06:53:27.478Z,43.83
2018-03-23T06:55:54.135Z,42.43
2018-03-23T06:58:20.784Z,42.40
2018-03-23T07:00:47.431Z,44.20
2018-03-23T07:03:14.112Z,43.20
2018-03-23T07:05:40.705Z,43.80
2018-03-23T07:08:07.476Z,43.10
2018-03-23T07:10:34.090Z,42.70
2018-03-23T07:13:00.785Z,43.47
2018-03-23T07:15:27.573Z,45.07
2018-03-23T07:17:54.195Z,47.27
2018-03-23T07:20:20.822Z,44.27
2018-03-23T07:22:47.440Z,41.97
2018-03-23T07:25:14.046Z,46.23
2018-03-23T07:27:40.665Z,47.57
2018-03-23T07:30:07.320Z,43.67
2018-03-23T07:32:33.918Z,44.83
2018-03-23T07:35:00.609Z,42.20
2018-03-23T07:37:27.481Z,42.63
2018-03-23T07:39:54.123Z,44.63
2018-03-23T07:42:20.724Z,41.80
2018-03-23T07:44:47.324Z,44.97
2018-03-23T07:47:13.965Z,43.97
2018-03-23T07:49:40.584Z,44.87
2018-03-23T07:52:07.430Z,46.63
2018-03-23T07:54:34.076Z,43.67
2018-03-23T07:57:00.717Z,45.20
2018-03-23T07:59:27.449Z,43.97
2018-03-23T08:01:54.080Z,49.27
2018-03-23T08:04:20.659Z,46.40
2018-03-23T08:06:47.245Z,45.37
2018-03-23T08:09:13.909Z,45.87
2018-03-23T08:11:40.831Z,49.00
2018-03-23T08:14:07.465Z,47.60
2018-03-23T08:16:34.100Z,44.77
2018-03-23T08:19:00.746Z,44.57
2018-03-23T08:21:27.421Z,44.83
2018-03-23T08:23:54.068Z,42.67
2018-03-23T08:26:21.101Z,45.27
2018-03-23T08:28:47.767Z,46.83
2018-03-23T08:31:14.422Z,44.27
2018-03-23T08:33:41.029Z,44.73
2018-03-23T08:36:07.694Z,44.23
2018-03-23T08:38:34.313Z,46.17
2018-03-23T08:41:00.920Z,41.40
2018-03-23T08:43:27.550Z,42.13
2018-03-23T08:45:54.228Z,45.27
2018-03-23T08:48:20.837Z,43.17
2018-03-23T08:50:47.440Z,43.80
2018-03-23T08:53:14.050Z,41.47
2018-03-23T08:55:40.678Z,44.07
2018-03-23T08:58:07.274Z,43.27
2018-03-23T09:00:34.086Z,42.77
2018-03-23T09:03:00.681Z,42.00
2018-03-23T09:05:27.396Z,41.50
2018-03-23T09:07:53.990Z,43.27
2018-03-23T09:10:20.622Z,43.70
2018-03-23T09:12:47.247Z,41.53
2018-03-23T09:15:13.877Z,40.20
2018-03-23T09:17:40.473Z,43.23
2018-03-23T09:20:07.324Z,43.23
2018-03-23T09:22:33.934Z,44.30
2018-03-23T09:25:00.605Z,40.97
2018-03-23T09:27:27.219Z,44.17
2018-03-23T09:29:53.853Z,43.63
2018-03-23T09:32:20.480Z,41.17
2018-03-23T09:34:47.097Z,47.73
2018-03-23T09:37:13.721Z,49.20
2018-03-23T09:39:40.356Z,43.43
2018-03-23T09:42:07.035Z,44.57
2018-03-23T09:44:33.881Z,42.33
2018-03-23T09:47:00.562Z,42.37
2018-03-23T09:49:27.204Z,43.40
2018-03-23T09:51:53.798Z,43.70
2018-03-23T09:54:20.421Z,41.97
2018-03-23T09:56:47.035Z,41.90
2018-03-23T09:59:13.805Z,42.67
2018-03-23T10:01:40.449Z,41.10
2018-03-23T10:04:07.181Z,43.47
2018-03-23T10:06:33.712Z,42.70
2018-03-23T10:09:00.374Z,42.20
2018-03-23T10:11:27.011Z,38.97
2018-03-23T10:13:53.660Z,41.20
2018-03-23T10:16:20.329Z,40.87
2018-03-23T10:18:46.979Z,39.90
2018-03-23T10:21:13.641Z,37.90
2018-03-23T10:23:40.297Z,41.30
2018-03-23T10:26:07.142Z,36.20
2018-03-23T11:44:30.069Z,21.57
2018-03-23T11:46:56.707Z,25.47
2018-03-23T11:49:23.307Z,24.10
2018-03-23T11:51:49.986Z,25.97
2018-03-23T11:54:16.575Z,22.27
2018-03-23T11:56:43.192Z,25.80
2018-03-23T11:59:09.845Z,23.23
2018-03-23T12:01:36.473Z,24.33
2018-03-23T12:04:03.111Z,24.27
2018-03-23T12:06:30.541Z,24.13
2018-03-23T12:08:57.176Z,23.90
2018-03-23T12:11:23.812Z,24.10
2018-03-23T12:13:50.670Z,25.53
2018-03-23T12:16:17.282Z,21.90
2018-03-23T12:18:44.065Z,25.93
2018-03-23T12:21:10.704Z,25.50
2018-03-23T12:23:37.349Z,25.00
2018-03-23T12:26:03.940Z,25.07
2018-03-23T12:28:30.589Z,28.30
2018-03-23T12:30:57.345Z,30.90
2018-03-23T12:33:24.630Z,26.20
2018-03-23T12:35:51.260Z,25.53
2018-03-23T12:38:17.890Z,26.30
2018-03-23T12:40:44.498Z,24.10
2018-03-23T12:43:11.126Z,25.40
2018-03-23T12:45:37.901Z,26.37
2018-03-23T12:48:04.612Z,25.00
2018-03-23T12:50:31.242Z,27.10
2018-03-23T12:52:57.969Z,25.30
2018-03-23T12:55:24.611Z,27.83
2018-03-23T12:57:51.223Z,24.00
2018-03-23T13:00:18.019Z,23.50
2018-03-23T13:02:44.635Z,23.80
2018-03-23T13:05:11.578Z,23.77
2018-03-23T13:07:38.168Z,24.67
2018-03-23T13:10:04.801Z,25.37
2018-03-23T13:12:31.434Z,24.57
2018-03-23T13:14:58.031Z,25.80
2018-03-23T13:17:24.802Z,25.27
2018-03-23T13:19:51.432Z,22.63
2018-03-23T13:22:18.047Z,23.77
2018-03-23T13:24:44.685Z,24.30
2018-03-23T13:27:11.285Z,23.83
2018-03-23T13:29:37.912Z,22.13
2018-03-23T13:32:04.517Z,23.27
2018-03-23T13:34:31.125Z,22.70
2018-03-23T13:36:57.758Z,23.90
2018-03-23T13:39:24.849Z,22.30
2018-03-23T13:41:51.558Z,23.37
2018-03-23T13:44:18.162Z,22.07
2018-03-23T13:46:44.831Z,22.63
2018-03-23T13:49:12.127Z,19.40
2018-03-23T13:51:38.747Z,21.20
2018-03-23T13:54:05.358Z,22.00
2018-03-23T13:56:32.077Z,21.93
2018-03-23T13:59:04.349Z,22.47
2018-03-23T14:01:36.748Z,20.20
2018-03-23T14:04:03.434Z,19.67
2018-03-23T14:06:30.719Z,20.07
2018-03-23T14:08:57.316Z,20.30
2018-03-23T14:11:24.004Z,17.80
2018-03-23T14:13:50.639Z,17.80
2018-03-23T14:16:17.233Z,16.17
2018-03-23T14:18:43.884Z,18.40
2018-03-23T14:21:10.547Z,17.97
2018-03-23T14:23:37.282Z,15.67
2018-03-23T14:26:03.856Z,18.37
2018-03-23T14:28:30.515Z,18.47
2018-03-23T14:30:57.130Z,18.53
2018-03-23T14:33:23.737Z,17.70
2018-03-23T14:35:50.344Z,17.47
2018-03-23T14:38:17.088Z,17.27
2018-03-23T14:40:43.687Z,17.80
2018-03-23T14:43:10.323Z,16.90
2018-03-23T14:45:36.960Z,17.30
2018-03-23T14:48:03.622Z,17.30
2018-03-23T14:50:30.234Z,17.10
2018-03-23T14:52:56.836Z,16.10
2018-03-23T14:55:23.435Z,16.70
2018-03-23T14:57:50.300Z,16.80
2018-03-23T15:00:16.921Z,18.83
2018-03-23T15:02:43.547Z,16.90
2018-03-23T15:05:10.164Z,17.47
2018-03-23T15:07:36.782Z,17.43
2018-03-23T15:10:03.419Z,16.73
2018-03-23T15:12:30.038Z,17.13
2018-03-23T15:14:56.741Z,17.77
2018-03-23T15:17:23.343Z,18.17
2018-03-23T15:19:49.962Z,16.93
2018-03-23T15:22:16.628Z,18.50
2018-03-23T15:24:43.260Z,19.33
2018-03-23T15:27:09.903Z,19.07
2018-03-23T15:29:36.523Z,20.67
2018-03-23T15:32:03.455Z,18.97
2018-03-23T15:34:30.374Z,19.80
2018-03-23T15:36:56.973Z,20.80
2018-03-23T15:39:23.587Z,21.70
2018-03-23T15:41:50.212Z,23.27
2018-03-23T15:44:16.849Z,21.60
2018-03-23T15:46:43.583Z,21.47
2018-03-23T15:49:10.199Z,22.90
2018-03-23T15:51:36.955Z,22.27
2018-03-23T15:54:03.597Z,23.70
2018-03-23T15:56:30.263Z,23.23
2018-03-23T15:58:56.894Z,24.40
2018-03-23T16:01:23.512Z,22.77
2018-03-23T16:03:50.214Z,24.00
2018-03-23T16:06:16.814Z,22.23
2018-03-23T16:08:43.453Z,23.43
2018-03-23T16:11:10.038Z,22.00
2018-03-23T16:13:36.665Z,22.83
2018-03-23T16:16:03.338Z,23.13
2018-03-23T16:18:29.956Z,22.33
2018-03-23T16:20:56.547Z,23.77
2018-03-23T16:23:23.197Z,24.20
2018-03-23T16:25:49.774Z,24.23
2018-03-23T16:28:16.470Z,22.90
2018-03-23T16:30:43.111Z,23.93
2018-03-23T16:33:09.744Z,24.30
2018-03-23T16:35:36.369Z,24.20
2018-03-23T16:38:03.129Z,22.30
2018-03-23T16:40:29.763Z,25.30
2018-03-23T16:42:56.430Z,25.03
2018-03-23T16:45:23.017Z,24.07
2018-03-23T16:47:49.619Z,23.13
2018-03-23T16:50:16.239Z,21.93
2018-03-23T16:52:42.855Z,25.90
2018-03-23T16:55:09.468Z,24.17
2018-03-23T16:57:36.342Z,23.67
2018-03-23T17:00:03.104Z,28.10
2018-03-23T17:02:29.768Z,24.73
2018-03-23T17:04:56.435Z,21.60
2018-03-23T17:07:23.180Z,25.00
2018-03-23T17:09:49.833Z,24.30
2018-03-23T17:12:16.428Z,24.77
2018-03-23T17:14:43.053Z,25.37
2018-03-23T17:17:09.638Z,24.57
2018-03-23T17:19:36.320Z,22.40
2018-03-23T17:22:02.922Z,25.00
2018-03-23T17:24:29.552Z,23.20
2018-03-23T17:26:58.191Z,25.83
2018-03-23T17:29:24.796Z,25.27
2018-03-23T17:31:51.421Z,23.80
2018-03-23T17:34:18.037Z,25.07
2018-03-23T17:36:44.628Z,25.37
2018-03-23T17:39:11.326Z,25.10
2018-03-23T17:41:37.960Z,26.00
2018-03-23T17:44:04.620Z,26.20
2018-03-23T17:46:31.235Z,25.40
2018-03-23T17:48:57.997Z,23.87
2018-03-23T17:51:24.571Z,24.10
2018-03-23T17:53:51.194Z,24.67
2018-03-23T17:56:17.806Z,25.07
2018-03-23T17:58:44.395Z,26.20
2018-03-23T18:01:11.034Z,24.10
2018-03-23T18:03:37.641Z,23.70
2018-03-23T18:06:04.256Z,24.70
2018-03-23T18:08:30.884Z,25.03
2018-03-23T18:10:57.581Z,25.77
2018-03-23T18:13:24.216Z,25.13
2018-03-23T18:15:51.534Z,25.23
2018-03-23T18:18:18.177Z,24.83
2018-03-23T18:20:44.824Z,24.13
2018-03-23T18:23:11.423Z,27.53
2018-03-23T18:25:38.041Z,26.10
2018-03-23T18:28:04.694Z,25.87
2018-03-23T18:30:31.346Z,24.13
2018-03-23T18:32:57.952Z,25.60
2018-03-23T18:35:24.673Z,26.10
2018-03-23T18:37:51.311Z,25.23
2018-03-23T18:40:18.024Z,25.17
2018-03-23T18:42:44.661Z,25.33
2018-03-23T18:45:11.270Z,25.47
2018-03-23T18:47:38.024Z,25.30
2018-03-23T18:50:04.642Z,27.07
2018-03-23T18:52:31.539Z,25.60
2018-03-23T18:54:58.142Z,26.70
2018-03-23T18:57:24.766Z,28.57
2018-03-23T18:59:51.392Z,26.00
2018-03-23T19:02:18.059Z,25.20
2018-03-23T19:04:44.894Z,25.50
2018-03-23T19:07:11.520Z,27.43
2018-03-23T19:09:38.158Z,25.63
2018-03-23T19:12:05.025Z,27.00
2018-03-23T19:14:31.707Z,22.57
2018-03-23T19:17:00.157Z,25.70
2018-03-23T19:19:27.943Z,25.27
2018-03-23T19:21:54.762Z,28.80
2018-03-23T19:24:21.412Z,25.87
2018-03-23T19:26:48.048Z,26.10
2018-03-23T19:29:14.715Z,25.07
2018-03-23T19:31:41.364Z,26.53
2018-03-23T19:34:10.738Z,25.47
2018-03-23T19:36:37.374Z,26.43
2018-03-23T19:39:06.097Z,29.07
2018-03-23T19:41:34.805Z,27.10
2018-03-23T19:44:02.420Z,26.23
2018-03-23T19:46:29.518Z,25.47
2018-03-23T19:48:56.219Z,26.17
2018-03-23T19:51:22.832Z,24.20
2018-03-23T19:53:49.540Z,26.80
2018-03-23T19:56:17.108Z,25.53
2018-03-23T19:58:43.777Z,24.77
2018-03-23T20:01:10.491Z,26.13
2018-03-23T20:03:37.125Z,23.90
2018-03-23T20:06:03.746Z,24.50
2018-03-23T20:08:30.383Z,24.53
2018-03-23T20:10:58.206Z,24.77
2018-03-23T20:13:24.819Z,25.27
2018-03-23T20:15:51.432Z,25.50
2018-03-23T20:18:22.966Z,24.17
2018-03-23T20:20:55.304Z,25.10
2018-03-23T20:23:21.947Z,24.50
2018-03-23T20:25:48.663Z,24.70
2018-03-23T20:28:21.032Z,26.10
2018-03-23T20:30:47.665Z,23.50
2018-03-23T20:33:14.309Z,27.93
2018-03-23T20:35:40.960Z,24.80
2018-03-23T20:38:07.585Z,25.10
2018-03-23T20:40:34.211Z,24.80
2018-03-23T20:43:00.821Z,25.30
2018-03-23T20:45:27.430Z,26.23
2018-03-23T20:47:54.075Z,24.80
2018-03-23T20:50:20.797Z,24.17
2018-03-23T20:52:48.158Z,24.70
2018-03-23T20:55:14.763Z,24.07
2018-03-23T20:57:41.724Z,25.27
2018-03-23T21:00:08.351Z,26.00
2018-03-23T21:02:34.994Z,27.07
2018-03-23T21:05:01.726Z,25.17
2018-03-23T21:07:28.368Z,22.67
2018-03-23T21:09:55.018Z,23.57
2018-03-23T21:12:21.627Z,22.33
2018-03-23T21:14:48.540Z,21.97
2018-03-23T21:17:15.311Z,22.90
2018-03-23T21:19:41.947Z,21.63
2018-03-23T21:22:09.176Z,23.17
2018-03-23T21:24:35.840Z,24.40
2018-03-23T21:27:02.518Z,22.67
2018-03-23T21:29:29.197Z,22.97
2018-03-23T21:31:56.002Z,21.70
2018-03-23T21:34:22.693Z,30.67
2018-03-23T21:36:49.266Z,23.50
2018-03-23T21:39:15.902Z,27.33
2018-03-23T21:41:42.581Z,25.90
2018-03-23T21:44:09.219Z,24.87
2018-03-23T21:46:35.799Z,24.93
2018-03-23T21:49:02.453Z,30.47
2018-03-23T21:51:29.069Z,31.30
2018-03-23T21:53:55.702Z,42.57
2018-03-23T21:56:22.346Z,30.00
2018-03-23T21:58:48.972Z,28.90
2018-03-23T22:01:15.599Z,29.60
2018-03-23T22:03:42.248Z,26.87
2018-03-23T22:06:08.869Z,27.73
2018-03-23T22:08:35.562Z,28.00
2018-03-23T22:11:02.182Z,28.37
2018-03-23T22:13:28.820Z,29.57
2018-03-23T22:15:55.480Z,26.50
2018-03-23T22:18:22.166Z,27.57
2018-03-23T22:20:48.818Z,25.43
2018-03-23T22:23:15.416Z,27.43
2018-03-23T22:25:42.062Z,26.43
2018-03-23T22:28:08.656Z,27.60
2018-03-23T22:30:35.296Z,27.77
2018-03-23T22:33:01.953Z,26.80
2018-03-23T22:35:28.579Z,26.27
2018-03-23T22:37:55.205Z,28.13
2018-03-23T22:40:21.830Z,27.30
2018-03-23T22:42:48.468Z,27.00
2018-03-23T22:45:15.133Z,27.13
2018-03-23T22:47:41.826Z,27.07
2018-03-23T22:50:08.487Z,27.57
2018-03-23T22:52:35.190Z,26.43
2018-03-23T22:55:01.925Z,26.70
2018-03-23T22:57:28.596Z,27.00
2018-03-23T22:59:55.522Z,26.07
2018-03-23T23:02:22.139Z,26.60
2018-03-23T23:04:48.728Z,28.50
2018-03-23T23:07:15.355Z,27.53
2018-03-23T23:09:41.973Z,26.70
2018-03-23T23:12:08.627Z,27.50
2018-03-23T23:14:35.550Z,26.80
2018-03-23T23:17:02.171Z,27.60
2018-03-23T23:19:28.795Z,28.93
2018-03-23T23:21:55.398Z,30.83
2018-03-23T23:24:22.272Z,31.50
2018-03-23T23:26:48.957Z,31.30
2018-03-23T23:29:15.584Z,30.77
2018-03-23T23:31:42.203Z,28.50
2018-03-23T23:34:09.190Z,29.90
2018-03-23T23:36:35.793Z,30.40
2018-03-23T23:39:02.396Z,28.07
2018-03-23T23:41:29.083Z,29.63
2018-03-23T23:43:55.774Z,28.17
2018-03-23T23:46:22.393Z,28.10
2018-03-23T23:48:49.005Z,30.13
2018-03-23T23:51:15.658Z,28.10
2018-03-23T23:53:42.284Z,29.83
2018-03-23T23:56:08.910Z,28.80
2018-03-23T23:58:35.826Z,32.27
